createdAt,value
2019-02-11T00:00:45.070Z,966.30
2019-02-11T00:01:45.054Z,966.31
2019-02-11T00:02:45.040Z,966.30
2019-02-11T00:03:45.028Z,966.33
2019-02-11T00:04:45.013Z,966.36
2019-02-11T00:05:44.999Z,966.36
2019-02-11T00:06:44.985Z,966.41
2019-02-11T00:07:44.972Z,966.43
2019-02-11T00:08:44.956Z,966.49
2019-02-11T00:09:44.942Z,966.55
2019-02-11T00:10:44.929Z,966.58
2019-02-11T00:11:44.914Z,966.59
2019-02-11T00:12:44.899Z,966.58
2019-02-11T00:13:44.884Z,966.61
2019-02-11T00:14:44.872Z,966.61
2019-02-11T00:15:44.860Z,966.65
2019-02-11T00:16:44.843Z,966.69
2019-02-11T00:17:44.828Z,966.69
2019-02-11T00:18:44.814Z,966.66
2019-02-11T00:19:44.801Z,966.68
2019-02-11T00:20:44.784Z,966.68
2019-02-11T00:21:44.771Z,966.72
2019-02-11T00:22:44.755Z,966.66
2019-02-11T00:23:44.745Z,966.64
2019-02-11T00:24:44.732Z,966.64
2019-02-11T00:25:44.713Z,966.64
2019-02-11T00:26:44.701Z,966.70
2019-02-11T00:27:44.686Z,966.65
2019-02-11T00:28:44.671Z,966.68
2019-02-11T00:29:44.659Z,966.68
2019-02-11T00:30:44.642Z,966.65
2019-02-11T00:31:44.628Z,966.68
2019-02-11T00:34:42.026Z,966.67
2019-02-11T00:35:42.011Z,966.59
2019-02-11T00:36:41.998Z,966.59
2019-02-11T00:37:41.986Z,966.66
2019-02-11T00:38:41.969Z,966.70
2019-02-11T00:39:41.955Z,966.69
2019-02-11T00:40:41.943Z,966.76
2019-02-11T00:41:41.927Z,966.77
2019-02-11T00:42:41.912Z,966.79
2019-02-11T00:43:41.897Z,966.79
2019-02-11T00:44:41.886Z,966.81
2019-02-11T00:45:41.870Z,966.80
2019-02-11T00:46:41.855Z,966.82
2019-02-11T00:47:41.844Z,966.80
2019-02-11T00:48:41.828Z,966.80
2019-02-11T00:49:41.813Z,966.77
2019-02-11T00:50:41.799Z,966.79
2019-02-11T00:51:41.786Z,966.72
2019-02-11T00:52:41.770Z,966.76
2019-02-11T00:53:41.760Z,966.76
2019-02-11T00:54:41.743Z,966.79
2019-02-11T00:55:41.732Z,966.85
2019-02-11T00:56:41.713Z,966.73
2019-02-11T00:57:41.699Z,966.79
2019-02-11T00:58:41.685Z,966.73
2019-02-11T00:59:41.674Z,966.72
2019-02-11T01:00:41.658Z,966.77
2019-02-11T01:01:41.642Z,966.74
2019-02-11T01:02:41.631Z,966.80
2019-02-11T01:03:41.613Z,966.82
2019-02-11T01:04:41.601Z,966.85
2019-02-11T01:05:41.585Z,966.89
2019-02-11T01:06:41.571Z,966.81
2019-02-11T01:07:41.559Z,966.84
2019-02-11T01:08:41.543Z,966.92
2019-02-11T01:09:41.529Z,966.91
2019-02-11T01:10:41.514Z,966.97
2019-02-11T01:11:41.501Z,966.98
2019-02-11T01:12:41.485Z,966.94
2019-02-11T01:13:41.474Z,967.01
2019-02-11T01:14:41.458Z,966.97
2019-02-11T01:15:41.445Z,966.93
2019-02-11T01:16:41.431Z,967.02
2019-02-11T01:17:41.414Z,967.04
2019-02-11T01:18:41.402Z,967.08
2019-02-11T01:19:41.386Z,967.06
2019-02-11T01:20:41.372Z,967.07
2019-02-11T01:21:41.358Z,967.09
2019-02-11T01:22:41.343Z,967.12
2019-02-11T01:23:41.329Z,967.13
2019-02-11T01:24:41.316Z,967.14
2019-02-11T01:25:41.301Z,967.12
2019-02-11T01:26:41.287Z,967.14
2019-02-11T01:27:41.271Z,967.08
2019-02-11T01:28:41.261Z,967.15
2019-02-11T01:29:41.245Z,967.06
2019-02-11T01:30:41.227Z,967.13
2019-02-11T01:31:41.215Z,967.17
2019-02-11T01:32:41.203Z,967.13
2019-02-11T01:33:41.188Z,967.20
2019-02-11T01:34:41.177Z,967.19
2019-02-11T01:35:41.156Z,967.29
2019-02-11T01:36:41.142Z,967.30
2019-02-11T01:37:41.129Z,967.31
2019-02-11T01:38:41.114Z,967.33
2019-02-11T01:39:41.102Z,967.34
2019-02-11T01:40:41.100Z,967.34
2019-02-11T01:41:41.071Z,967.39
2019-02-11T01:42:41.060Z,967.41
2019-02-11T01:43:41.042Z,967.38
2019-02-11T01:44:41.030Z,967.40
2019-02-11T01:45:41.083Z,967.39
2019-02-11T01:46:41.003Z,967.44
2019-02-11T01:47:40.984Z,967.38
2019-02-11T01:48:40.973Z,967.45
2019-02-11T01:49:40.962Z,967.41
2019-02-11T01:50:40.944Z,967.42
2019-02-11T01:51:40.930Z,967.51
2019-02-11T01:52:40.916Z,967.50
2019-02-11T01:53:40.900Z,967.53
2019-02-11T01:54:40.884Z,967.45
2019-02-11T01:55:40.873Z,967.53
2019-02-11T01:56:40.858Z,967.58
2019-02-11T01:57:40.842Z,967.63
2019-02-11T01:58:40.827Z,967.60
2019-02-11T01:59:40.812Z,967.61
2019-02-11T02:00:40.804Z,967.59
2019-02-11T02:01:40.786Z,967.62
2019-02-11T02:02:40.769Z,967.59
2019-02-11T02:03:40.758Z,967.66
2019-02-11T02:04:40.743Z,967.69
2019-02-11T02:05:40.727Z,967.70
2019-02-11T02:06:40.711Z,967.69
2019-02-11T02:07:40.698Z,967.65
2019-02-11T02:08:40.686Z,967.64
2019-02-11T02:09:40.670Z,967.64
2019-02-11T02:10:40.658Z,967.69
2019-02-11T02:11:40.647Z,967.64
2019-02-11T02:12:40.628Z,967.61
2019-02-11T02:13:44.912Z,967.65
2019-02-11T02:14:40.597Z,967.68
2019-02-11T02:15:40.582Z,967.73
2019-02-11T02:16:40.574Z,967.73
2019-02-11T02:17:40.557Z,967.78
2019-02-11T02:18:40.539Z,967.76
2019-02-11T02:19:40.526Z,967.77
2019-02-11T02:20:40.512Z,967.76
2019-02-11T02:21:40.496Z,967.74
2019-02-11T02:22:40.489Z,967.77
2019-02-11T02:23:40.471Z,967.76
2019-02-11T02:24:40.453Z,967.79
2019-02-11T02:25:40.439Z,967.79
2019-02-11T02:26:40.425Z,967.81
2019-02-11T02:27:40.411Z,967.79
2019-02-11T02:28:40.394Z,967.84
2019-02-11T02:29:40.430Z,967.86
2019-02-11T02:30:40.366Z,967.82
2019-02-11T02:31:40.354Z,967.80
2019-02-11T02:32:40.337Z,967.85
2019-02-11T02:33:40.322Z,967.83
2019-02-11T02:34:40.310Z,967.87
2019-02-11T02:35:40.296Z,967.90
2019-02-11T02:36:40.285Z,967.84
2019-02-11T02:37:40.285Z,967.87
2019-02-11T02:38:40.249Z,967.85
2019-02-11T02:39:40.239Z,967.87
2019-02-11T02:40:40.228Z,967.86
2019-02-11T02:41:40.211Z,967.92
2019-02-11T02:42:40.195Z,967.88
2019-02-11T02:43:40.177Z,967.81
2019-02-11T02:44:40.164Z,967.85
2019-02-11T02:45:40.151Z,967.85
2019-02-11T02:46:40.135Z,967.88
2019-02-11T02:47:40.123Z,967.81
2019-02-11T02:48:40.106Z,967.82
2019-02-11T02:49:40.092Z,967.81
2019-02-11T02:50:40.077Z,967.86
2019-02-11T02:51:40.062Z,967.88
2019-02-11T02:52:40.049Z,967.94
2019-02-11T02:53:40.036Z,967.97
2019-02-11T02:54:40.020Z,967.99
2019-02-11T02:55:40.004Z,967.99
2019-02-11T02:56:39.991Z,968.03
2019-02-11T02:57:39.976Z,968.05
2019-02-11T02:58:39.962Z,968.06
2019-02-11T02:59:39.946Z,968.06
2019-02-11T03:00:39.932Z,968.05
2019-02-11T03:01:39.926Z,968.03
2019-02-11T03:02:39.902Z,968.02
2019-02-11T03:03:39.888Z,968.04
2019-02-11T03:04:39.875Z,968.04
2019-02-11T03:05:39.861Z,968.06
2019-02-11T03:06:39.846Z,968.06
2019-02-11T03:07:39.832Z,968.09
2019-02-11T03:08:39.816Z,968.13
2019-02-11T03:09:39.802Z,968.05
2019-02-11T03:10:39.787Z,968.07
2019-02-11T03:11:39.773Z,968.05
2019-02-11T03:12:39.760Z,968.07
2019-02-11T03:13:39.744Z,968.06
2019-02-11T03:14:39.730Z,968.01
2019-02-11T03:15:39.714Z,968.07
2019-02-11T03:16:39.698Z,968.09
2019-02-11T03:17:39.686Z,968.06
2019-02-11T03:18:39.669Z,968.06
2019-02-11T03:19:39.655Z,968.04
2019-02-11T03:20:39.642Z,968.07
2019-02-11T03:21:39.628Z,968.06
2019-02-11T03:22:39.611Z,968.05
2019-02-11T03:23:39.598Z,968.00
2019-02-11T03:24:39.582Z,967.99
2019-02-11T03:25:39.568Z,967.98
2019-02-11T03:26:39.554Z,967.97
2019-02-11T03:27:39.543Z,968.02
2019-02-11T03:28:39.524Z,968.12
2019-02-11T03:29:39.510Z,968.09
2019-02-11T03:30:39.507Z,968.12
2019-02-11T03:31:39.486Z,968.10
2019-02-11T03:32:39.471Z,968.14
2019-02-11T03:33:39.456Z,968.17
2019-02-11T03:34:39.438Z,968.21
2019-02-11T03:35:39.424Z,968.22
2019-02-11T03:36:39.409Z,968.15
2019-02-11T03:37:39.396Z,968.18
2019-02-11T03:38:39.378Z,968.19
2019-02-11T03:39:39.366Z,968.24
2019-02-11T03:40:39.350Z,968.30
2019-02-11T03:41:39.335Z,968.31
2019-02-11T03:42:39.327Z,968.38
2019-02-11T03:43:39.306Z,968.39
2019-02-11T03:44:39.293Z,968.48
2019-02-11T03:45:39.276Z,968.42
2019-02-11T03:46:39.261Z,968.53
2019-02-11T03:47:39.254Z,968.54
2019-02-11T03:48:39.235Z,968.58
2019-02-11T03:49:39.231Z,968.57
2019-02-11T03:50:39.202Z,968.59
2019-02-11T03:51:39.191Z,968.60
2019-02-11T03:52:39.180Z,968.66
2019-02-11T03:53:39.163Z,968.73
2019-02-11T03:54:39.146Z,968.75
2019-02-11T03:55:39.133Z,968.67
2019-02-11T03:56:39.115Z,968.73
2019-02-11T03:57:39.121Z,968.82
2019-02-11T03:58:39.086Z,968.77
2019-02-11T03:59:39.075Z,968.84
2019-02-11T04:00:39.062Z,968.88
2019-02-11T04:01:39.050Z,968.85
2019-02-11T04:02:39.029Z,968.91
2019-02-11T04:03:39.015Z,968.91
2019-02-11T04:04:39.001Z,968.93
2019-02-11T04:05:38.985Z,968.97
2019-02-11T04:06:38.972Z,968.98
2019-02-11T04:07:38.959Z,969.01
2019-02-11T04:08:38.941Z,969.03
2019-02-11T04:09:38.927Z,969.14
2019-02-11T04:10:38.913Z,969.20
2019-02-11T04:11:38.900Z,969.14
2019-02-11T04:12:38.885Z,969.22
2019-02-11T04:13:38.869Z,969.24
2019-02-11T04:14:38.855Z,969.21
2019-02-11T04:15:38.842Z,969.32
2019-02-11T04:16:38.825Z,969.43
2019-02-11T04:17:38.815Z,969.40
2019-02-11T04:18:38.796Z,969.42
2019-02-11T04:19:38.791Z,969.49
2019-02-11T04:20:38.768Z,969.37
2019-02-11T04:21:38.754Z,969.43
2019-02-11T04:22:38.739Z,969.50
2019-02-11T04:23:38.724Z,969.51
2019-02-11T04:24:38.709Z,969.53
2019-02-11T04:25:38.694Z,969.58
2019-02-11T04:26:38.680Z,969.60
2019-02-11T04:27:38.665Z,969.64
2019-02-11T04:28:38.654Z,969.71
2019-02-11T04:29:38.637Z,969.70
2019-02-11T04:30:38.622Z,969.76
2019-02-11T04:31:38.607Z,969.77
2019-02-11T04:32:38.597Z,969.76
2019-02-11T04:33:38.580Z,969.76
2019-02-11T04:34:38.565Z,969.79
2019-02-11T04:35:38.549Z,969.84
2019-02-11T04:36:38.545Z,969.83
2019-02-11T04:37:38.519Z,969.82
2019-02-11T04:38:38.506Z,969.85
2019-02-11T04:39:38.493Z,969.89
2019-02-11T04:40:38.487Z,969.96
2019-02-11T04:41:38.463Z,969.95
2019-02-11T04:42:38.449Z,969.99
2019-02-11T04:43:38.433Z,970.00
2019-02-11T04:44:38.420Z,970.06
2019-02-11T04:45:38.417Z,970.07
2019-02-11T04:46:38.392Z,970.12
2019-02-11T04:47:38.376Z,970.15
2019-02-11T04:48:38.363Z,970.19
2019-02-11T04:49:38.355Z,970.26
2019-02-11T04:50:38.332Z,970.25
2019-02-11T04:51:38.320Z,970.27
2019-02-11T04:52:38.304Z,970.31
2019-02-11T04:53:38.289Z,970.30
2019-02-11T04:54:38.274Z,970.30
2019-02-11T04:55:38.261Z,970.32
2019-02-11T04:56:38.247Z,970.36
2019-02-11T04:57:38.232Z,970.35
2019-02-11T04:58:38.220Z,970.33
2019-02-11T04:59:38.203Z,970.35
2019-02-11T05:00:38.190Z,970.23
2019-02-11T05:01:38.175Z,970.36
2019-02-11T05:02:38.160Z,970.42
2019-02-11T05:03:38.146Z,970.39
2019-02-11T05:04:38.138Z,970.34
2019-02-11T05:05:38.119Z,970.48
2019-02-11T05:06:38.104Z,970.46
2019-02-11T05:07:38.104Z,970.49
2019-02-11T05:08:38.073Z,970.51
2019-02-11T05:09:38.063Z,970.45
2019-02-11T05:10:38.045Z,970.45
2019-02-11T05:11:38.030Z,970.46
2019-02-11T05:12:38.017Z,970.45
2019-02-11T05:13:38.001Z,970.41
2019-02-11T05:14:43.850Z,970.47
2019-02-11T05:15:37.971Z,970.45
2019-02-11T05:16:37.957Z,970.43
2019-02-11T05:17:37.942Z,970.48
2019-02-11T05:18:37.926Z,970.49
2019-02-11T05:19:37.912Z,970.56
2019-02-11T05:20:37.899Z,970.55
2019-02-11T05:21:37.885Z,970.55
2019-02-11T05:22:37.867Z,970.51
2019-02-11T05:23:37.854Z,970.53
2019-02-11T05:24:37.840Z,970.59
2019-02-11T05:25:37.826Z,970.63
2019-02-11T05:26:37.810Z,970.61
2019-02-11T05:27:37.796Z,970.61
2019-02-11T05:28:37.783Z,970.65
2019-02-11T05:29:37.770Z,970.66
2019-02-11T05:30:37.753Z,970.70
2019-02-11T05:31:37.737Z,970.79
2019-02-11T05:32:37.722Z,970.82
2019-02-11T05:33:37.722Z,970.85
2019-02-11T05:34:37.694Z,970.86
2019-02-11T05:35:37.678Z,970.84
2019-02-11T05:36:37.664Z,970.91
2019-02-11T05:37:37.650Z,970.90
2019-02-11T05:38:37.636Z,970.86
2019-02-11T05:39:37.621Z,970.90
2019-02-11T05:40:37.606Z,970.93
2019-02-11T05:41:37.594Z,970.91
2019-02-11T05:42:37.576Z,970.91
2019-02-11T05:43:37.561Z,970.95
2019-02-11T05:44:37.549Z,970.95
2019-02-11T05:45:37.533Z,970.92
2019-02-11T05:46:37.517Z,970.97
2019-02-11T05:47:37.503Z,971.02
2019-02-11T05:48:37.489Z,971.04
2019-02-11T05:49:37.476Z,971.05
2019-02-11T05:50:37.459Z,971.03
2019-02-11T05:51:37.443Z,971.07
2019-02-11T05:52:37.429Z,971.07
2019-02-11T05:53:37.416Z,971.12
2019-02-11T05:54:37.402Z,971.08
2019-02-11T05:55:37.387Z,971.10
2019-02-11T05:56:37.370Z,971.06
2019-02-11T05:57:37.359Z,971.07
2019-02-11T05:58:37.339Z,971.10
2019-02-11T05:59:37.326Z,971.18
2019-02-11T06:00:37.313Z,971.16
2019-02-11T06:01:37.300Z,971.24
2019-02-11T06:02:37.285Z,971.26
2019-02-11T06:03:37.269Z,971.26
2019-02-11T06:04:37.252Z,971.31
2019-02-11T06:05:37.238Z,971.28
2019-02-11T06:06:37.225Z,971.28
2019-02-11T06:07:37.208Z,971.29
2019-02-11T06:08:37.196Z,971.31
2019-02-11T06:09:37.181Z,971.27
2019-02-11T06:10:37.165Z,971.34
2019-02-11T06:11:37.151Z,971.31
2019-02-11T06:12:37.134Z,971.32
2019-02-11T06:13:37.133Z,971.36
2019-02-11T06:14:37.106Z,971.36
2019-02-11T06:15:37.089Z,971.44
2019-02-11T06:16:37.082Z,971.47
2019-02-11T06:17:37.062Z,971.51
2019-02-11T06:18:37.046Z,971.55
2019-02-11T06:19:37.032Z,971.53
2019-02-11T06:20:37.025Z,971.61
2019-02-11T06:21:37.006Z,971.62
2019-02-11T06:22:36.989Z,971.65
2019-02-11T06:23:36.973Z,971.69
2019-02-11T06:24:36.959Z,971.68
2019-02-11T06:25:36.946Z,971.71
2019-02-11T06:26:36.935Z,971.75
2019-02-11T06:27:36.918Z,971.79
2019-02-11T06:28:36.900Z,971.83
2019-02-11T06:29:36.887Z,971.83
2019-02-11T06:30:36.871Z,971.85
2019-02-11T06:31:36.856Z,971.86
2019-02-11T06:32:36.840Z,971.91
2019-02-11T06:33:36.827Z,971.96
2019-02-11T06:34:36.814Z,971.98
2019-02-11T06:35:36.799Z,971.96
2019-02-11T06:36:36.783Z,972.00
2019-02-11T06:37:36.769Z,972.02
2019-02-11T06:38:36.752Z,972.06
2019-02-11T06:39:36.738Z,972.09
2019-02-11T06:40:36.723Z,972.01
2019-02-11T06:41:36.708Z,972.08
2019-02-11T06:42:36.695Z,972.19
2019-02-11T06:43:36.680Z,972.18
2019-02-11T06:44:36.664Z,972.20
2019-02-11T06:45:36.654Z,972.20
2019-02-11T06:46:36.639Z,972.28
2019-02-11T06:47:36.622Z,972.29
2019-02-11T06:48:36.606Z,972.34
2019-02-11T06:49:36.590Z,972.35
2019-02-11T06:50:36.574Z,972.34
2019-02-11T06:51:36.561Z,972.39
2019-02-11T06:52:36.546Z,972.46
2019-02-11T06:53:36.537Z,972.46
2019-02-11T06:54:36.517Z,972.55
2019-02-11T06:55:36.502Z,972.57
2019-02-11T06:56:36.486Z,972.62
2019-02-11T06:57:36.473Z,972.64
2019-02-11T06:58:36.458Z,972.64
2019-02-11T06:59:36.443Z,972.70
2019-02-11T07:00:36.430Z,972.73
2019-02-11T07:01:36.420Z,972.76
2019-02-11T07:02:36.399Z,972.80
2019-02-11T07:03:36.388Z,972.83
2019-02-11T07:04:36.372Z,972.87
2019-02-11T07:05:36.355Z,972.91
2019-02-11T07:06:36.342Z,972.92
2019-02-11T07:07:36.776Z,972.86
2019-02-11T07:08:36.317Z,972.98
2019-02-11T07:09:36.309Z,973.02
2019-02-11T07:10:36.281Z,973.00
2019-02-11T07:11:36.266Z,973.01
2019-02-11T07:12:36.252Z,973.04
2019-02-11T07:13:36.238Z,973.07
2019-02-11T07:14:36.222Z,973.07
2019-02-11T07:15:36.208Z,973.11
2019-02-11T07:16:36.193Z,973.15
2019-02-11T07:17:36.178Z,973.15
2019-02-11T07:18:37.162Z,973.20
2019-02-11T07:19:36.148Z,973.21
2019-02-11T07:20:36.135Z,973.20
2019-02-11T07:21:36.122Z,973.23
2019-02-11T07:22:36.104Z,973.28
2019-02-11T07:23:36.090Z,973.32
2019-02-11T07:24:36.075Z,973.36
2019-02-11T07:25:36.064Z,973.35
2019-02-11T07:26:36.045Z,973.37
2019-02-11T07:27:36.031Z,973.36
2019-02-11T07:28:36.016Z,973.32
2019-02-11T07:29:36.001Z,973.40
2019-02-11T07:30:35.986Z,973.42
2019-02-11T07:31:35.974Z,973.40
2019-02-11T07:32:35.958Z,973.43
2019-02-11T07:33:35.945Z,973.45
2019-02-11T07:34:35.929Z,973.43
2019-02-11T07:35:35.913Z,973.42
2019-02-11T07:36:35.902Z,973.43
2019-02-11T07:37:35.886Z,973.48
2019-02-11T07:38:35.874Z,973.49
2019-02-11T07:39:35.852Z,973.50
2019-02-11T07:40:35.839Z,973.54
2019-02-11T07:41:35.824Z,973.60
2019-02-11T07:42:35.810Z,973.54
2019-02-11T07:43:35.797Z,973.64
2019-02-11T07:44:35.780Z,973.65
2019-02-11T07:45:35.764Z,973.65
2019-02-11T07:46:35.749Z,973.65
2019-02-11T07:47:35.747Z,973.69
2019-02-11T07:48:35.724Z,973.72
2019-02-11T07:49:35.706Z,973.71
2019-02-11T07:50:35.692Z,973.73
2019-02-11T07:51:42.152Z,973.73
2019-02-11T07:52:35.660Z,973.80
2019-02-11T07:53:35.647Z,973.80
2019-02-11T07:54:35.635Z,973.86
2019-02-11T07:55:35.616Z,973.89
2019-02-11T07:56:35.603Z,973.92
2019-02-11T07:57:35.587Z,973.93
2019-02-11T07:58:35.573Z,973.89
2019-02-11T07:59:35.559Z,973.91
2019-02-11T08:00:35.543Z,973.94
2019-02-11T08:01:35.530Z,973.98
2019-02-11T08:02:35.514Z,973.98
2019-02-11T08:03:35.501Z,974.01
2019-02-11T08:04:35.485Z,974.07
2019-02-11T08:05:35.471Z,974.08
2019-02-11T08:06:35.455Z,974.06
2019-02-11T08:07:35.445Z,974.12
2019-02-11T08:08:35.426Z,974.13
2019-02-11T08:09:35.412Z,974.18
2019-02-11T08:10:35.397Z,974.20
2019-02-11T08:11:35.382Z,974.24
2019-02-11T08:12:35.369Z,974.28
2019-02-11T08:13:35.353Z,974.28
2019-02-11T08:14:35.343Z,974.29
2019-02-11T08:15:38.559Z,974.27
2019-02-11T08:16:35.309Z,974.22
2019-02-11T08:17:35.294Z,974.27
2019-02-11T08:18:35.278Z,974.29
2019-02-11T08:19:35.264Z,974.32
2019-02-11T08:20:35.249Z,974.32
2019-02-11T08:21:35.237Z,974.32
2019-02-11T08:22:35.233Z,974.33
2019-02-11T08:23:35.205Z,974.41
2019-02-11T08:24:35.199Z,974.35
2019-02-11T08:25:35.177Z,974.40
2019-02-11T08:26:35.161Z,974.39
2019-02-11T08:27:35.146Z,974.39
2019-02-11T08:28:35.132Z,974.41
2019-02-11T08:29:35.120Z,974.49
2019-02-11T08:30:35.101Z,974.48
2019-02-11T08:31:35.087Z,974.52
2019-02-11T08:32:35.073Z,974.55
2019-02-11T08:33:35.059Z,974.54
2019-02-11T08:34:35.044Z,974.54
2019-02-11T08:35:35.031Z,974.58
2019-02-11T08:36:35.014Z,974.59
2019-02-11T08:37:35.001Z,974.56
2019-02-11T08:38:34.985Z,974.54
2019-02-11T08:39:34.973Z,974.55
2019-02-11T08:40:34.958Z,974.55
2019-02-11T08:41:34.944Z,974.59
2019-02-11T08:42:34.925Z,974.60
2019-02-11T08:43:34.913Z,974.58
2019-02-11T08:44:34.897Z,974.64
2019-02-11T08:45:34.883Z,974.64
2019-02-11T08:46:34.868Z,974.61
2019-02-11T08:47:34.855Z,974.58
2019-02-11T08:48:34.839Z,974.64
2019-02-11T08:49:34.825Z,974.66
2019-02-11T08:50:34.810Z,974.60
2019-02-11T08:51:34.799Z,974.68
2019-02-11T08:52:34.783Z,974.68
2019-02-11T08:53:34.770Z,974.67
2019-02-11T08:54:34.753Z,974.72
2019-02-11T08:55:34.739Z,974.76
2019-02-11T08:56:34.725Z,974.81
2019-02-11T08:57:34.711Z,974.83
2019-02-11T08:58:34.697Z,974.90
2019-02-11T08:59:34.685Z,974.92
2019-02-11T09:00:34.670Z,974.93
2019-02-11T09:01:34.657Z,974.98
2019-02-11T09:02:34.641Z,975.00
2019-02-11T09:03:34.628Z,975.02
2019-02-11T09:04:34.614Z,975.04
2019-02-11T09:05:34.600Z,975.08
2019-02-11T09:06:34.586Z,975.09
2019-02-11T09:07:34.572Z,975.11
2019-02-11T09:08:34.561Z,975.06
2019-02-11T09:09:34.547Z,975.12
2019-02-11T09:10:34.532Z,975.11
2019-02-11T09:11:34.519Z,975.11
2019-02-11T09:12:34.504Z,975.17
2019-02-11T09:13:34.490Z,975.18
2019-02-11T09:14:34.477Z,975.16
2019-02-11T09:15:34.463Z,975.20
2019-02-11T09:16:34.448Z,975.27
2019-02-11T09:17:34.435Z,975.26
2019-02-11T09:18:34.421Z,975.23
2019-02-11T09:19:34.408Z,975.15
2019-02-11T09:20:34.393Z,975.20
2019-02-11T09:21:34.381Z,975.19
2019-02-11T09:22:34.365Z,975.22
2019-02-11T09:23:34.353Z,975.23
2019-02-11T09:24:34.954Z,975.20
2019-02-11T09:25:34.327Z,975.26
2019-02-11T09:26:34.310Z,975.28
2019-02-11T09:27:34.296Z,975.28
2019-02-11T09:28:34.284Z,975.30
2019-02-11T09:29:34.272Z,975.37
2019-02-11T09:30:34.257Z,975.42
2019-02-11T09:31:34.243Z,975.44
2019-02-11T09:32:34.231Z,975.45
2019-02-11T09:33:34.216Z,975.48
2019-02-11T09:34:34.202Z,975.49
2019-02-11T09:35:34.187Z,975.51
2019-02-11T09:36:34.176Z,975.53
2019-02-11T09:37:34.160Z,975.55
2019-02-11T09:38:34.147Z,975.59
2019-02-11T09:39:34.138Z,975.59
2019-02-11T09:40:34.121Z,975.59
2019-02-11T09:41:34.107Z,975.58
2019-02-11T09:42:34.096Z,975.62
2019-02-11T09:43:34.083Z,975.65
2019-02-11T09:44:34.072Z,975.69
2019-02-11T09:45:34.056Z,975.68
2019-02-11T09:46:34.040Z,975.74
2019-02-11T09:47:34.028Z,975.73
2019-02-11T09:48:34.015Z,975.78
2019-02-11T09:49:34.027Z,975.79
2019-02-11T09:50:33.989Z,975.77
2019-02-11T09:51:33.975Z,975.87
2019-02-11T09:52:33.963Z,975.85
2019-02-11T09:53:33.949Z,975.90
2019-02-11T09:54:33.935Z,975.87
2019-02-11T09:55:33.925Z,975.89
2019-02-11T09:56:33.910Z,975.90
2019-02-11T09:57:33.897Z,975.92
2019-02-11T09:58:33.885Z,975.96
2019-02-11T09:59:33.872Z,975.97
2019-02-11T10:00:33.858Z,975.82
2019-02-11T10:01:33.846Z,975.97
2019-02-11T10:02:33.833Z,975.97
2019-02-11T10:03:33.817Z,975.95
2019-02-11T10:04:33.805Z,976.02
2019-02-11T10:05:33.790Z,976.00
2019-02-11T10:06:33.777Z,976.04
2019-02-11T10:07:33.763Z,976.05
2019-02-11T10:08:33.751Z,976.08
2019-02-11T10:09:33.738Z,976.04
2019-02-11T10:10:33.722Z,976.14
2019-02-11T10:11:33.712Z,976.20
2019-02-11T10:12:33.698Z,976.18
2019-02-11T10:13:33.684Z,976.20
2019-02-11T10:14:33.669Z,976.24
2019-02-11T10:15:33.659Z,976.26
2019-02-11T10:16:33.643Z,976.23
2019-02-11T10:17:33.630Z,976.31
2019-02-11T10:18:33.615Z,976.30
2019-02-11T10:19:33.602Z,976.26
2019-02-11T10:20:33.590Z,976.31
2019-02-11T10:21:33.950Z,976.25
2019-02-11T10:22:33.563Z,976.24
2019-02-11T10:23:33.547Z,976.37
2019-02-11T10:24:33.537Z,976.41
2019-02-11T10:25:33.522Z,976.40
2019-02-11T10:26:33.506Z,976.43
2019-02-11T10:27:33.494Z,976.43
2019-02-11T10:28:33.481Z,976.45
2019-02-11T10:29:33.467Z,976.43
2019-02-11T10:30:33.454Z,976.42
2019-02-11T10:31:33.438Z,976.45
2019-02-11T10:32:33.425Z,976.54
2019-02-11T10:33:33.413Z,976.55
2019-02-11T10:34:33.399Z,976.55
2019-02-11T10:35:41.834Z,976.54
2019-02-11T10:36:33.374Z,976.57
2019-02-11T10:37:33.360Z,976.58
2019-02-11T10:38:36.589Z,976.60
2019-02-11T10:39:33.334Z,976.50
2019-02-11T10:40:33.321Z,976.54
2019-02-11T10:41:33.307Z,976.54
2019-02-11T10:42:33.293Z,976.54
2019-02-11T10:43:33.279Z,976.51
2019-02-11T10:44:33.265Z,976.48
2019-02-11T10:45:36.612Z,976.55
2019-02-11T10:46:33.238Z,976.52
2019-02-11T10:47:33.225Z,976.53
2019-02-11T10:48:33.211Z,976.50
2019-02-11T10:49:33.201Z,976.56
2019-02-11T10:50:33.190Z,976.57
2019-02-11T10:51:33.173Z,976.54
2019-02-11T10:52:33.157Z,976.61
2019-02-11T10:53:33.146Z,976.65
2019-02-11T10:54:33.131Z,976.63
2019-02-11T10:55:33.119Z,976.66
2019-02-11T10:56:33.106Z,976.65
2019-02-11T10:57:33.092Z,976.67
2019-02-11T10:58:33.079Z,976.71
2019-02-11T10:59:33.065Z,976.70
2019-02-11T11:00:33.054Z,976.68
2019-02-11T11:01:33.040Z,976.63
2019-02-11T11:02:33.027Z,976.66
2019-02-11T11:03:33.017Z,976.70
2019-02-11T11:04:33.002Z,976.73
2019-02-11T11:05:32.990Z,976.73
2019-02-11T11:06:32.976Z,976.70
2019-02-11T11:07:32.965Z,976.68
2019-02-11T11:08:32.950Z,976.78
2019-02-11T11:09:32.938Z,976.79
2019-02-11T11:10:32.924Z,976.82
2019-02-11T11:11:32.913Z,976.82
2019-02-11T11:12:32.898Z,976.83
2019-02-11T11:13:32.887Z,976.84
2019-02-11T11:14:32.872Z,976.81
2019-02-11T11:15:32.861Z,976.84
2019-02-11T11:16:32.846Z,976.94
2019-02-11T11:17:32.833Z,976.88
2019-02-11T11:18:32.820Z,976.99
2019-02-11T11:19:32.808Z,976.95
2019-02-11T11:20:32.797Z,976.97
2019-02-11T11:21:32.782Z,976.93
2019-02-11T11:22:32.768Z,976.91
2019-02-11T11:23:32.755Z,976.93
2019-02-11T11:24:32.742Z,976.93
2019-02-11T11:25:32.728Z,976.94
2019-02-11T11:26:32.715Z,976.98
2019-02-11T11:27:32.712Z,976.92
2019-02-11T11:28:32.689Z,976.91
2019-02-11T11:29:32.682Z,976.93
2019-02-11T11:30:32.662Z,976.98
2019-02-11T11:31:32.651Z,976.97
2019-02-11T11:32:32.638Z,977.04
2019-02-11T11:33:32.625Z,976.97
2019-02-11T11:34:32.610Z,977.06
2019-02-11T11:35:32.599Z,977.06
2019-02-11T11:36:32.585Z,977.04
2019-02-11T11:37:32.582Z,977.06
2019-02-11T11:38:32.562Z,977.07
2019-02-11T11:39:32.546Z,977.10
2019-02-11T11:40:32.534Z,977.11
2019-02-11T11:41:32.520Z,977.08
2019-02-11T11:42:32.508Z,977.05
2019-02-11T11:43:32.495Z,977.02
2019-02-11T11:44:32.483Z,977.09
2019-02-11T11:45:32.473Z,977.05
2019-02-11T11:46:38.694Z,977.09
2019-02-11T11:47:32.442Z,976.96
2019-02-11T11:48:32.431Z,977.07
2019-02-11T11:49:32.417Z,977.08
2019-02-11T11:50:32.404Z,977.14
2019-02-11T11:51:32.394Z,977.15
2019-02-11T11:52:32.386Z,977.16
2019-02-11T11:53:32.365Z,977.17
2019-02-11T11:54:32.351Z,977.21
2019-02-11T11:55:32.342Z,977.21
2019-02-11T11:56:32.334Z,977.13
2019-02-11T11:57:32.319Z,977.12
2019-02-11T11:58:32.306Z,977.10
2019-02-11T11:59:32.304Z,977.12
2019-02-11T12:00:32.289Z,977.21
2019-02-11T12:01:32.274Z,977.19
2019-02-11T12:02:32.256Z,977.17
2019-02-11T12:03:32.236Z,977.20
2019-02-11T12:04:32.229Z,977.22
2019-02-11T12:05:32.250Z,977.25
2019-02-11T12:06:32.211Z,977.20
2019-02-11T12:07:32.188Z,977.23
2019-02-11T12:08:32.177Z,977.28
2019-02-11T12:09:32.189Z,977.26
2019-02-11T12:10:32.151Z,977.26
2019-02-11T12:11:32.141Z,977.27
2019-02-11T12:12:32.175Z,977.23
2019-02-11T12:13:32.134Z,977.25
2019-02-11T12:14:32.099Z,977.25
2019-02-11T12:15:32.086Z,977.31
2019-02-11T12:16:32.075Z,977.28
2019-02-11T12:17:32.118Z,977.30
2019-02-11T12:18:32.048Z,977.29
2019-02-11T12:19:32.036Z,977.38
2019-02-11T12:20:33.645Z,977.37
2019-02-11T12:21:32.011Z,977.35
2019-02-11T12:22:32.000Z,977.41
2019-02-11T12:23:31.999Z,977.41
2019-02-11T12:24:31.977Z,977.45
2019-02-11T12:25:31.966Z,977.43
2019-02-11T12:26:31.951Z,977.44
2019-02-11T12:27:31.942Z,977.44
2019-02-11T12:28:31.934Z,977.45
2019-02-11T12:29:31.917Z,977.47
2019-02-11T12:30:31.908Z,977.44